ADDS METAR Data INFO
IDs: Format: Raw Decoded Include TAF

Data at: 0252 UTC 21 Jan 2018

METAR for:KRSW (Ft Myers/SW Florida, FL, US)
Text:KRSW 210153Z 06009KT 10SM CLR 18/14 A3022 RMK AO2 SLP230 T01830139
Temperature: 18.3°C ( 65°F)
Dewpoint: 13.9°C ( 57°F) [RH = 76%]
Pressure (altimeter):30.22 inches Hg (1023.5 mb) [Sea level pressure: 1023.0 mb]
Winds:from the ENE (60 degrees) at 10 MPH (9 knots; 4.6 m/s)
Visibility:10 or more sm (16+ km)
Ceiling:at least 12,000 feet AGL
Clouds:sky clear below 12,000 feet AGL